Time;durP1;ratioP1;P1;durP2;ratioP2;P2;SDS_P1;SDS_P2;PMS_P1;PMS_P2;Temp;Humidity;BMP_temperature;BMP_pressure;BME280_temperature;BME280_humidity;BME280_pressure;Samples;Min_cycle;Max_cycle;Signal;HPM_P1;HPM_P2
2023/10/05 00:00:46;;;;;;;51.85;20.90;;;;;;;;;;6242321;28;20415;-68
2023/10/05 00:04:05;;;;;;;50.47;20.02;;;;;;;;;;6243369;28;20045;-66
2023/10/05 00:07:23;;;;;;;49.10;20.17;;;;;;;;;;6243511;28;20049;-65
2023/10/05 00:10:23;;;;;;;47.92;19.92;;;;;;;;;;6241275;28;20073;-65
2023/10/05 00:13:24;;;;;;;52.13;20.08;;;;;;;;;;6243513;28;20075;-64
2023/10/05 00:16:37;;;;;;;48.63;21.20;;;;;;;;;;6241728;28;20045;-66
2023/10/05 00:19:39;;;;;;;47.33;18.25;;;;;;;;;;6242782;28;20053;-65
2023/10/05 00:22:40;;;;;;;48.75;19.38;;;;;;;;;;6243262;28;20051;-66
2023/10/05 00:25:41;;;;;;;43.58;17.77;;;;;;;;;;6242791;28;20049;-63
2023/10/05 00:28:53;;;;;;;46.33;17.05;;;;;;;;;;6243179;28;20040;-62
2023/10/05 00:31:58;;;;;;;56.42;19.58;;;;;;;;;;6243395;28;20049;-65
2023/10/05 00:38:19;;;;;;;46.50;18.73;;;;;;;;;;6256704;28;20056;-66
2023/10/05 00:41:22;;;;;;;35.03;16.50;;;;;;;;;;6254998;28;20319;-65
2023/10/05 00:44:23;;;;;;;46.05;17.45;;;;;;;;;;6242276;28;20048;-66
2023/10/05 00:47:24;;;;;;;44.17;18.38;;;;;;;;;;6247737;28;20110;-64
2023/10/05 00:50:24;;;;;;;52.60;18.27;;;;;;;;;;6242482;28;20496;-66
2023/10/05 00:53:30;;;;;;;51.55;19.10;;;;;;;;;;6243672;28;20053;-67
2023/10/05 00:56:34;;;;;;;49.25;19.73;;;;;;;;;;6243846;28;20045;-63
2023/10/05 00:59:36;;;;;;;49.05;19.60;;;;;;;;;;6251227;28;20049;-64
2023/10/05 01:02:45;;;;;;;53.50;18.80;;;;;;;;;;6242537;28;20516;-64
2023/10/05 01:06:27;;;;;;;50.97;19.13;;;;;;;;;;6242097;28;20047;-66
2023/10/05 01:09:15;;;;;;;42.65;17.10;;;;;;;;;;6240497;28;20129;-67
2023/10/05 01:12:39;;;;;;;49.65;19.65;;;;;;;;;;6243066;28;20064;-65
2023/10/05 01:15:37;;;;;;;49.25;19.40;;;;;;;;;;6247695;28;20069;-65
2023/10/05 01:18:39;;;;;;;53.72;20.08;;;;;;;;;;6246614;28;20081;-65
2023/10/05 01:21:43;;;;;;;56.45;19.98;;;;;;;;;;6245632;28;20045;-63
2023/10/05 01:24:45;;;;;;;56.08;19.42;;;;;;;;;;6245803;28;20050;-64
2023/10/05 01:27:52;;;;;;;47.43;18.67;;;;;;;;;;6247578;28;20061;-62
2023/10/05 01:30:55;;;;;;;53.20;20.58;;;;;;;;;;6246922;28;20049;-67
2023/10/05 01:33:58;;;;;;;52.58;20.75;;;;;;;;;;6247038;28;20095;-64
2023/10/05 01:36:59;;;;;;;52.13;19.70;;;;;;;;;;6255916;28;20132;-65
2023/10/05 01:40:01;;;;;;;51.15;19.08;;;;;;;;;;6246567;28;20057;-65
2023/10/05 01:43:02;;;;;;;57.47;20.42;;;;;;;;;;6246510;28;20103;-65
2023/10/05 01:46:04;;;;;;;52.03;19.85;;;;;;;;;;6246667;28;20420;-67
2023/10/05 01:49:05;;;;;;;53.25;19.48;;;;;;;;;;6245275;28;20526;-67
2023/10/05 01:52:06;;;;;;;59.75;20.10;;;;;;;;;;6245350;28;20041;-67
2023/10/05 01:55:11;;;;;;;55.92;20.85;;;;;;;;;;6246430;28;20770;-66
2023/10/05 01:58:22;;;;;;;53.03;19.40;;;;;;;;;;6244935;28;20049;-64
2023/10/05 02:01:28;;;;;;;53.63;20.60;;;;;;;;;;6243870;28;20051;-67
2023/10/05 02:04:30;;;;;;;57.03;20.80;;;;;;;;;;6246669;28;20049;-67
2023/10/05 02:07:31;;;;;;;63.10;21.35;;;;;;;;;;6246279;28;20449;-65
2023/10/05 02:10:39;;;;;;;59.30;22.30;;;;;;;;;;6245373;28;20048;-67
2023/10/05 02:13:41;;;;;;;59.15;22.85;;;;;;;;;;6245792;28;20053;-68
2023/10/05 02:16:41;;;;;;;59.20;23.92;;;;;;;;;;6246372;28;20059;-65
2023/10/05 02:19:42;;;;;;;67.57;24.35;;;;;;;;;;6244714;28;20132;-67
2023/10/05 02:22:47;;;;;;;62.72;23.13;;;;;;;;;;6245498;28;20045;-69
2023/10/05 02:25:54;;;;;;;61.63;22.25;;;;;;;;;;6246090;28;20041;-66
2023/10/05 02:28:55;;;;;;;55.35;21.75;;;;;;;;;;6246030;28;20050;-67
2023/10/05 02:32:05;;;;;;;55.85;21.58;;;;;;;;;;6244944;28;20060;-66
2023/10/05 02:35:24;;;;;;;57.05;21.17;;;;;;;;;;6246773;28;20042;-65
2023/10/05 02:38:25;;;;;;;59.08;21.60;;;;;;;;;;6251527;28;20045;-68
2023/10/05 02:41:38;;;;;;;59.43;21.00;;;;;;;;;;6255069;28;20140;-65
2023/10/05 02:44:40;;;;;;;53.80;20.35;;;;;;;;;;6246171;28;20048;-64
2023/10/05 02:47:41;;;;;;;50.40;18.55;;;;;;;;;;6245579;28;20049;-64
2023/10/05 02:50:41;;;;;;;46.67;18.30;;;;;;;;;;6245455;28;20547;-65
2023/10/05 02:53:46;;;;;;;52.17;18.67;;;;;;;;;;6256030;28;20170;-68
2023/10/05 02:56:48;;;;;;;;;;;;;;;;;;6269678;28;20383;-67
2023/10/05 02:59:50;;;;;;;52.83;18.17;;;;;;;;;;6269732;28;19932;-67
2023/10/05 03:02:53;;;;;;;48.72;19.35;;;;;;;;;;6256998;28;20572;-67
2023/10/05 03:05:53;;;;;;;53.35;21.42;;;;;;;;;;6244750;28;20049;-67
2023/10/05 03:08:58;;;;;;;47.58;21.15;;;;;;;;;;6244982;28;20077;-63
2023/10/05 03:11:58;;;;;;;58.97;22.80;;;;;;;;;;6244437;28;20057;-64
2023/10/05 03:15:04;;;;;;;69.68;25.13;;;;;;;;;;6244133;28;20053;-67
2023/10/05 03:18:06;;;;;;;59.42;21.30;;;;;;;;;;6244029;28;20156;-64
2023/10/05 03:21:14;;;;;;;57.90;20.65;;;;;;;;;;6245915;28;20036;-66
2023/10/05 03:24:14;;;;;;;56.03;25.35;;;;;;;;;;6244913;28;20073;-59
2023/10/05 03:27:22;;;;;;;58.00;24.52;;;;;;;;;;6256912;28;20076;-63
2023/10/05 03:30:30;;;;;;;51.17;21.02;;;;;;;;;;6244512;28;20065;-66
2023/10/05 03:33:33;;;;;;;53.25;20.15;;;;;;;;;;6244360;28;20483;-67
2023/10/05 03:36:33;;;;;;;49.17;19.95;;;;;;;;;;6242444;28;20049;-66
2023/10/05 03:39:38;;;;;;;55.55;22.05;;;;;;;;;;6255006;28;20403;-64
2023/10/05 03:42:39;;;;;;;53.95;21.90;;;;;;;;;;6244827;28;20441;-66
2023/10/05 03:45:39;;;;;;;53.45;20.70;;;;;;;;;;6243708;28;20053;-67
2023/10/05 03:48:41;;;;;;;59.60;20.95;;;;;;;;;;6243333;28;20068;-63
2023/10/05 03:51:49;;;;;;;59.97;21.83;;;;;;;;;;6243163;28;20534;-66
2023/10/05 03:54:51;;;;;;;60.10;21.08;;;;;;;;;;6244435;28;20045;-63
2023/10/05 03:57:52;;;;;;;;;;;;;;;;;;6243420;28;20049;-65
2023/10/05 04:00:53;;;;;;;56.80;24.02;;;;;;;;;;6246889;28;19921;-64
2023/10/05 04:03:54;;;;;;;59.08;22.20;;;;;;;;;;6243186;28;20099;-66
2023/10/05 04:06:55;;;;;;;57.63;22.15;;;;;;;;;;6241998;28;20084;-61
2023/10/05 04:10:01;;;;;;;62.35;23.45;;;;;;;;;;6244673;28;20045;-62
2023/10/05 04:13:02;;;;;;;67.90;23.60;;;;;;;;;;6243684;28;20045;-66
2023/10/05 04:16:07;;;;;;;57.40;22.52;;;;;;;;;;6245424;28;20476;-67
2023/10/05 04:19:11;;;;;;;68.93;23.35;;;;;;;;;;6250684;28;20473;-67
2023/10/05 04:22:14;;;;;;;69.15;24.92;;;;;;;;;;6243299;28;20041;-66
2023/10/05 04:25:16;;;;;;;68.10;24.15;;;;;;;;;;6243138;28;20057;-63
2023/10/05 04:28:17;;;;;;;69.07;24.23;;;;;;;;;;6241300;28;20094;-65
2023/10/05 04:31:25;;;;;;;58.40;21.92;;;;;;;;;;6242113;28;20496;-67
2023/10/05 04:34:30;;;;;;;62.22;22.60;;;;;;;;;;6243607;28;20059;-63
2023/10/05 04:37:31;;;;;;;54.35;21.77;;;;;;;;;;6246687;28;20041;-65
2023/10/05 04:40:34;;;;;;;56.03;21.08;;;;;;;;;;6253979;28;20077;-67
2023/10/05 04:43:34;;;;;;;64.10;22.80;;;;;;;;;;6259554;28;20404;-65
2023/10/05 04:46:35;;;;;;;69.07;25.00;;;;;;;;;;6241332;28;20057;-67
2023/10/05 04:49:37;;;;;;;68.15;24.20;;;;;;;;;;6251546;28;20057;-67
2023/10/05 04:52:39;;;;;;;59.50;20.92;;;;;;;;;;6244946;28;20136;-67
2023/10/05 04:55:43;;;;;;;59.88;20.58;;;;;;;;;;6240628;28;20107;-66
2023/10/05 05:02:21;;;;;;;56.08;17.90;;;;;;;;;;6243529;28;20100;-67
2023/10/05 05:05:34;;;;;;;54.55;19.27;;;;;;;;;;6241647;28;20045;-68
2023/10/05 05:08:38;;;;;;;52.63;18.80;;;;;;;;;;6243039;28;20057;-68
2023/10/05 05:11:40;;;;;;;58.30;20.80;;;;;;;;;;6246027;28;20045;-67
2023/10/05 05:14:41;;;;;;;59.60;19.27;;;;;;;;;;6243222;28;20038;-68
2023/10/05 05:17:43;;;;;;;65.57;20.45;;;;;;;;;;6243124;28;20468;-67
2023/10/05 05:20:45;;;;;;;61.40;19.08;;;;;;;;;;6240629;28;20132;-67
2023/10/05 05:23:47;;;;;;;57.65;19.50;;;;;;;;;;6249144;28;20041;-64
2023/10/05 05:26:48;;;;;;;60.88;20.77;;;;;;;;;;6240888;28;20097;-62
2023/10/05 05:29:52;;;;;;;60.63;19.05;;;;;;;;;;6254168;28;20041;-67
2023/10/05 05:32:56;;;;;;;55.85;17.50;;;;;;;;;;6244477;28;20042;-67
2023/10/05 05:35:58;;;;;;;55.03;16.65;;;;;;;;;;6240547;28;20041;-65
2023/10/05 05:38:58;;;;;;;56.40;17.67;;;;;;;;;;6243859;28;20091;-65
2023/10/05 05:42:06;;;;;;;60.10;16.73;;;;;;;;;;6240132;28;20049;-68
2023/10/05 05:45:15;;;;;;;54.35;17.17;;;;;;;;;;6247533;28;20521;-67
2023/10/05 05:48:16;;;;;;;56.05;17.55;;;;;;;;;;6243200;28;20053;-68
2023/10/05 05:51:17;;;;;;;51.97;16.77;;;;;;;;;;6241225;28;20130;-68
2023/10/05 05:54:18;;;;;;;52.40;16.90;;;;;;;;;;6246252;28;20160;-66
2023/10/05 05:57:20;;;;;;;50.17;16.95;;;;;;;;;;6244817;28;20825;-64
2023/10/05 06:00:21;;;;;;;46.63;15.18;;;;;;;;;;6254100;28;20087;-68
2023/10/05 06:03:22;;;;;;;49.45;15.68;;;;;;;;;;6246879;28;20049;-68
2023/10/05 06:06:22;;;;;;;52.75;14.77;;;;;;;;;;6247377;28;20042;-66
2023/10/05 06:09:26;;;;;;;43.45;14.45;;;;;;;;;;6253065;28;20077;-67
2023/10/05 06:12:27;;;;;;;45.47;14.48;;;;;;;;;;6245662;28;20090;-68
2023/10/05 06:15:30;;;;;;;48.22;14.60;;;;;;;;;;6246198;28;20049;-65
2023/10/05 06:18:32;;;;;;;47.40;15.15;;;;;;;;;;6256739;28;20046;-66
2023/10/05 06:21:32;;;;;;;35.63;12.30;;;;;;;;;;6249244;28;20042;-66
2023/10/05 06:24:42;;;;;;;47.67;13.85;;;;;;;;;;6247455;28;20611;-66
2023/10/05 06:27:49;;;;;;;40.95;14.55;;;;;;;;;;6247345;28;20493;-67
2023/10/05 06:30:50;;;;;;;49.28;13.57;;;;;;;;;;6252384;28;20524;-68
2023/10/05 06:33:52;;;;;;;37.92;12.82;;;;;;;;;;6249570;28;20062;-68
2023/10/05 06:36:53;;;;;;;35.30;12.50;;;;;;;;;;6248022;28;20064;-67
2023/10/05 06:39:53;;;;;;;38.72;13.70;;;;;;;;;;6249350;28;20050;-66
2023/10/05 06:42:55;;;;;;;40.33;14.55;;;;;;;;;;6244782;28;20446;-68
2023/10/05 06:46:08;;;;;;;35.85;12.85;;;;;;;;;;6244980;28;20099;-67
2023/10/05 06:49:09;;;;;;;33.78;11.98;;;;;;;;;;6251696;28;20044;-69
2023/10/05 06:52:10;;;;;;;36.08;11.98;;;;;;;;;;6248587;28;20052;-68
2023/10/05 06:55:12;;;;;;;32.30;11.80;;;;;;;;;;6249615;28;20416;-67
2023/10/05 06:58:13;;;;;;;31.95;12.15;;;;;;;;;;6244480;28;20080;-67
2023/10/05 07:01:14;;;;;;;30.33;10.87;;;;;;;;;;6255536;28;20140;-65
2023/10/05 07:04:18;;;;;;;31.40;11.80;;;;;;;;;;6249779;28;20651;-65
2023/10/05 07:07:19;;;;;;;32.85;9.80;;;;;;;;;;6245032;28;20045;-67
2023/10/05 07:10:20;;;;;;;26.30;10.13;;;;;;;;;;6245024;28;20423;-62
2023/10/05 07:13:22;;;;;;;24.70;10.05;;;;;;;;;;6245049;28;20136;-66
2023/10/05 07:16:24;;;;;;;20.85;8.73;;;;;;;;;;6243793;28;20053;-66
2023/10/05 07:19:25;;;;;;;30.30;10.38;;;;;;;;;;6249381;28;20045;-68
2023/10/05 07:22:25;;;;;;;21.98;8.43;;;;;;;;;;6243805;28;20492;-68
2023/10/05 07:25:26;;;;;;;20.90;8.27;;;;;;;;;;6244845;28;20128;-67
2023/10/05 07:28:26;;;;;;;22.35;8.13;;;;;;;;;;6248634;28;20042;-68
2023/10/05 07:31:27;;;;;;;22.13;8.15;;;;;;;;;;6248847;28;20049;-67
2023/10/05 07:34:27;;;;;;;21.50;8.20;;;;;;;;;;6250512;28;20056;-68
2023/10/05 07:37:29;;;;;;;19.38;7.97;;;;;;;;;;6245245;28;20586;-69
2023/10/05 07:40:29;;;;;;;17.20;7.40;;;;;;;;;;6247404;28;20045;-66
2023/10/05 07:43:32;;;;;;;18.73;7.40;;;;;;;;;;6251926;28;20443;-69
2023/10/05 07:46:32;;;;;;;;;;;;;;;;;;6246526;28;20209;-67
2023/10/05 07:49:36;;;;;;;17.50;6.50;;;;;;;;;;6245167;28;19944;-67
2023/10/05 07:52:40;;;;;;;23.05;7.25;;;;;;;;;;6248042;28;20076;-68
2023/10/05 07:55:41;;;;;;;17.45;5.88;;;;;;;;;;6249546;28;20140;-63
2023/10/05 07:58:44;;;;;;;15.80;5.75;;;;;;;;;;6248634;28;20034;-68
2023/10/05 08:01:45;;;;;;;19.55;5.40;;;;;;;;;;6242213;28;20046;-65
2023/10/05 08:04:46;;;;;;;14.60;5.10;;;;;;;;;;6252509;28;20065;-68
2023/10/05 08:07:47;;;;;;;17.93;5.60;;;;;;;;;;6252559;28;20397;-68
2023/10/05 08:10:47;;;;;;;14.93;5.40;;;;;;;;;;6249311;28;20053;-66
2023/10/05 08:13:49;;;;;;;17.05;5.43;;;;;;;;;;6248066;28;20116;-68
2023/10/05 08:16:57;;;;;;;14.88;5.80;;;;;;;;;;6247099;28;20106;-68
2023/10/05 08:19:58;;;;;;;14.13;5.68;;;;;;;;;;6246488;28;20155;-70
2023/10/05 08:22:59;;;;;;;12.80;5.55;;;;;;;;;;6246109;28;20450;-65
2023/10/05 08:26:00;;;;;;;11.13;4.80;;;;;;;;;;6247462;28;20524;-68
2023/10/05 08:29:01;;;;;;;11.65;4.72;;;;;;;;;;6244980;28;20054;-69
2023/10/05 08:32:06;;;;;;;12.07;4.35;;;;;;;;;;6246245;28;20052;-66
2023/10/05 08:35:13;;;;;;;12.70;4.53;;;;;;;;;;6248289;28;20053;-66
2023/10/05 08:38:15;;;;;;;8.68;4.55;;;;;;;;;;6254544;28;20045;-68
2023/10/05 08:41:27;;;;;;;;;;;;;;;;;;6247008;28;20443;-66
2023/10/05 08:44:28;;;;;;;10.60;4.22;;;;;;;;;;6245830;28;20272;-67
2023/10/05 08:47:30;;;;;;;10.57;4.15;;;;;;;;;;6246192;28;20044;-66
2023/10/05 08:50:35;;;;;;;;;;;;;;;;;;6244119;28;20049;-66
2023/10/05 08:53:41;;;;;;;11.35;3.97;;;;;;;;;;6243078;28;20295;-68
2023/10/05 08:56:45;;;;;;;9.68;3.38;;;;;;;;;;6243728;28;20049;-69
2023/10/05 08:59:46;;;;;;;7.85;3.60;;;;;;;;;;6247971;28;20249;-68
2023/10/05 09:02:46;;;;;;;8.68;3.90;;;;;;;;;;6244547;28;20053;-68
2023/10/05 09:09:51;;;;;;;9.48;3.15;;;;;;;;;;6231273;28;20163;-67
2023/10/05 09:12:58;;;;;;;8.57;3.13;;;;;;;;;;6245015;28;20049;-67
2023/10/05 09:15:59;;;;;;;8.43;3.33;;;;;;;;;;6245195;28;20152;-67
2023/10/05 09:19:00;;;;;;;10.98;3.47;;;;;;;;;;6249900;28;20393;-68
2023/10/05 09:25:09;;;;;;;10.00;3.25;;;;;;;;;;6248383;28;20302;-68
2023/10/05 09:28:12;;;;;;;8.15;3.17;;;;;;;;;;6246967;28;20044;-69
2023/10/05 09:31:13;;;;;;;12.25;3.50;;;;;;;;;;6250069;28;20042;-70
2023/10/05 09:34:15;;;;;;;8.60;3.30;;;;;;;;;;6243293;28;20138;-60
2023/10/05 09:37:17;;;;;;;11.68;3.67;;;;;;;;;;6247910;28;20049;-68
2023/10/05 09:40:18;;;;;;;9.02;3.00;;;;;;;;;;6249781;28;20072;-69
2023/10/05 09:43:21;;;;;;;8.93;3.03;;;;;;;;;;6251221;28;20532;-68
2023/10/05 09:46:22;;;;;;;9.25;2.78;;;;;;;;;;6253377;28;20040;-68
2023/10/05 09:49:23;;;;;;;8.13;3.05;;;;;;;;;;6252905;28;20431;-68
2023/10/05 09:52:31;;;;;;;7.72;2.90;;;;;;;;;;6247046;28;20052;-68
2023/10/05 09:55:33;;;;;;;8.00;2.83;;;;;;;;;;6249497;28;20084;-68
2023/10/05 09:58:34;;;;;;;;;;;;;;;;;;6248788;28;20056;-67
2023/10/05 10:01:37;;;;;;;9.02;2.78;;;;;;;;;;6246881;28;19929;-68
2023/10/05 10:04:39;;;;;;;6.75;2.83;;;;;;;;;;6243614;28;20042;-65
2023/10/05 10:07:40;;;;;;;12.85;3.08;;;;;;;;;;6248136;28;20454;-65
2023/10/05 10:10:51;;;;;;;8.65;4.15;;;;;;;;;;6246702;28;20045;-63
2023/10/05 10:14:05;;;;;;;8.13;3.30;;;;;;;;;;6249902;28;20077;-68
2023/10/05 10:17:24;;;;;;;8.88;2.97;;;;;;;;;;6245828;28;20053;-64
2023/10/05 10:20:34;;;;;;;11.07;3.38;;;;;;;;;;6247218;28;20366;-66
2023/10/05 10:23:36;;;;;;;12.10;3.47;;;;;;;;;;6250927;28;20053;-68
2023/10/05 10:26:43;;;;;;;9.70;3.67;;;;;;;;;;6251540;28;20050;-68
2023/10/05 10:29:53;;;;;;;6.97;2.78;;;;;;;;;;6252832;28;20049;-66
2023/10/05 10:33:20;;;;;;;9.70;3.17;;;;;;;;;;6256500;28;20084;-65
2023/10/05 10:36:47;;;;;;;7.28;3.33;;;;;;;;;;6255054;28;20095;-67
2023/10/05 10:39:49;;;;;;;7.28;3.00;;;;;;;;;;6246318;28;20048;-69
2023/10/05 10:46:14;;;;;;;10.35;3.33;;;;;;;;;;6244518;28;20073;-68
2023/10/05 10:49:19;;;;;;;8.68;3.15;;;;;;;;;;6251391;28;20061;-68
2023/10/05 10:52:21;;;;;;;8.35;3.25;;;;;;;;;;6246801;28;20044;-68
2023/10/05 10:55:30;;;;;;;;;;;;;;;;;;6246778;28;20507;-69
2023/10/05 10:58:32;;;;;;;10.20;3.17;;;;;;;;;;6253780;28;19951;-69
2023/10/05 11:01:41;;;;;;;9.13;3.28;;;;;;;;;;6245125;28;20149;-70
2023/10/05 11:04:43;;;;;;;9.40;3.33;;;;;;;;;;6249496;28;20037;-70
2023/10/05 11:07:44;;;;;;;10.70;3.50;;;;;;;;;;6244068;28;20111;-69
2023/10/05 11:10:45;;;;;;;9.98;3.30;;;;;;;;;;6246348;28;20508;-67
2023/10/05 11:13:55;;;;;;;9.13;3.17;;;;;;;;;;6246455;28;20072;-70
2023/10/05 11:16:59;;;;;;;9.55;2.95;;;;;;;;;;6248773;28;20069;-70
2023/10/05 11:20:12;;;;;;;8.23;3.15;;;;;;;;;;6253781;28;20136;-69
2023/10/05 11:23:13;;;;;;;9.77;3.10;;;;;;;;;;6249556;28;20148;-68
2023/10/05 11:26:17;;;;;;;8.75;3.15;;;;;;;;;;6243955;28;20076;-69
2023/10/05 11:29:20;;;;;;;8.70;3.08;;;;;;;;;;6246448;28;20489;-70
2023/10/05 11:32:24;;;;;;;11.15;3.45;;;;;;;;;;6250051;28;20045;-69
2023/10/05 11:35:28;;;;;;;8.40;3.58;;;;;;;;;;6251027;28;20065;-70
2023/10/05 11:38:29;;;;;;;8.50;3.22;;;;;;;;;;6247847;28;20056;-69
2023/10/05 11:41:30;;;;;;;15.55;3.50;;;;;;;;;;6248527;28;20041;-69
2023/10/05 11:44:31;;;;;;;13.83;4.07;;;;;;;;;;6253283;28;20048;-70
2023/10/05 11:47:41;;;;;;;9.80;3.60;;;;;;;;;;6243589;28;20054;-70
2023/10/05 11:50:51;;;;;;;9.05;3.30;;;;;;;;;;6244507;28;20071;-69
2023/10/05 11:53:55;;;;;;;10.55;3.30;;;;;;;;;;6246150;28;20400;-71
2023/10/05 11:56:56;;;;;;;10.77;3.55;;;;;;;;;;6241262;28;20057;-68
2023/10/05 12:00:00;;;;;;;9.40;3.00;;;;;;;;;;6242894;28;20059;-67
2023/10/05 12:03:02;;;;;;;11.23;3.38;;;;;;;;;;6243703;28;20046;-68
2023/10/05 12:06:03;;;;;;;8.27;3.13;;;;;;;;;;6242662;28;20052;-70
2023/10/05 12:09:07;;;;;;;9.52;3.60;;;;;;;;;;6246417;28;20098;-68
2023/10/05 12:12:10;;;;;;;11.38;3.13;;;;;;;;;;6245348;28;20340;-68
2023/10/05 12:15:17;;;;;;;8.70;3.08;;;;;;;;;;6242474;28;20136;-66
2023/10/05 12:18:17;;;;;;;10.75;2.88;;;;;;;;;;6241746;28;20503;-65
2023/10/05 12:21:21;;;;;;;10.68;3.00;;;;;;;;;;6243666;28;20045;-68
2023/10/05 12:24:22;;;;;;;10.38;3.13;;;;;;;;;;6252081;28;20073;-69
2023/10/05 12:27:23;;;;;;;9.30;2.65;;;;;;;;;;6241101;28;20041;-69
2023/10/05 12:30:24;;;;;;;10.35;3.00;;;;;;;;;;6242357;28;20041;-65
2023/10/05 12:33:25;;;;;;;11.90;2.97;;;;;;;;;;6256502;28;20172;-68
2023/10/05 12:36:25;;;;;;;10.02;3.63;;;;;;;;;;6248455;28;20473;-67
2023/10/05 12:39:29;;;;;;;14.55;3.78;;;;;;;;;;6243645;28;20495;-67
2023/10/05 12:42:29;;;;;;;9.02;3.15;;;;;;;;;;6244612;28;20045;-67
2023/10/05 12:45:30;;;;;;;11.68;3.08;;;;;;;;;;6248163;28;20060;-61
2023/10/05 12:48:31;;;;;;;10.98;3.65;;;;;;;;;;6242267;28;20496;-63
2023/10/05 12:51:34;;;;;;;9.48;3.30;;;;;;;;;;6255024;28;20127;-59
2023/10/05 12:54:37;;;;;;;11.30;3.05;;;;;;;;;;6245323;28;20136;-58
2023/10/05 12:57:38;;;;;;;12.25;3.55;;;;;;;;;;6247505;28;20505;-58
2023/10/05 13:00:42;;;;;;;9.88;3.50;;;;;;;;;;6248018;28;20061;-58
2023/10/05 13:03:44;;;;;;;10.32;3.35;;;;;;;;;;6248810;28;20053;-59
2023/10/05 13:06:46;;;;;;;13.63;4.18;;;;;;;;;;6249906;28;20084;-59
2023/10/05 13:10:00;;;;;;;10.98;3.50;;;;;;;;;;6273116;28;20146;-59
2023/10/05 13:13:00;;;;;;;14.63;4.13;;;;;;;;;;6258302;28;20075;-58
2023/10/05 13:16:05;;;;;;;11.00;3.53;;;;;;;;;;6258398;28;20589;-59
2023/10/05 13:19:06;;;;;;;14.55;4.60;;;;;;;;;;6259011;28;20045;-59
2023/10/05 13:22:11;;;;;;;13.48;4.00;;;;;;;;;;6260177;28;20049;-59
2023/10/05 13:25:11;;;;;;;11.88;4.07;;;;;;;;;;6258212;28;20560;-59
2023/10/05 13:28:12;;;;;;;14.43;4.32;;;;;;;;;;6260870;28;20144;-59
2023/10/05 13:31:13;;;;;;;14.95;4.53;;;;;;;;;;6257100;28;20137;-59
2023/10/05 13:34:16;;;;;;;14.85;4.78;;;;;;;;;;6259172;28;20044;-59
2023/10/05 13:37:19;;;;;;;16.88;4.63;;;;;;;;;;6260715;28;20053;-58
2023/10/05 13:40:24;;;;;;;15.48;4.32;;;;;;;;;;6257622;28;20043;-59
2023/10/05 13:43:26;;;;;;;15.70;4.63;;;;;;;;;;6259091;28;20363;-59
2023/10/05 13:46:35;;;;;;;18.27;5.03;;;;;;;;;;6258675;28;20057;-59
2023/10/05 13:49:41;;;;;;;16.75;5.28;;;;;;;;;;6258532;28;20120;-59
2023/10/05 13:52:45;;;;;;;18.98;5.80;;;;;;;;;;6257826;28;20513;-59
2023/10/05 13:55:48;;;;;;;19.00;5.63;;;;;;;;;;6258007;28;20530;-60
2023/10/05 13:58:49;;;;;;;21.58;5.97;;;;;;;;;;6258715;28;20592;-59
2023/10/05 14:01:52;;;;;;;20.85;5.95;;;;;;;;;;6256168;28;20053;-59
2023/10/05 14:04:53;;;;;;;19.65;5.47;;;;;;;;;;6257461;28;20048;-59
2023/10/05 14:07:53;;;;;;;18.40;5.57;;;;;;;;;;6258913;28;20547;-59
2023/10/05 14:10:56;;;;;;;22.70;6.07;;;;;;;;;;6258780;28;20055;-59
2023/10/05 14:13:56;;;;;;;22.63;6.28;;;;;;;;;;6257110;28;20126;-59
2023/10/05 14:17:06;;;;;;;20.15;5.57;;;;;;;;;;6260022;28;20118;-60
2023/10/05 14:20:07;;;;;;;20.75;5.78;;;;;;;;;;6255365;28;20053;-59
2023/10/05 14:23:08;;;;;;;22.60;6.82;;;;;;;;;;6252799;28;20387;-59
2023/10/05 14:26:10;;;;;;;20.60;6.00;;;;;;;;;;6255949;28;20381;-61
2023/10/05 14:29:12;;;;;;;21.67;6.60;;;;;;;;;;6259459;28;20239;-59
2023/10/05 14:32:13;;;;;;;21.67;6.57;;;;;;;;;;6259720;28;20041;-59
2023/10/05 14:35:15;;;;;;;28.38;6.03;;;;;;;;;;6258689;28;20059;-60
2023/10/05 14:38:17;;;;;;;23.55;7.43;;;;;;;;;;6259803;28;20514;-59
2023/10/05 14:41:19;;;;;;;21.90;7.05;;;;;;;;;;6257769;28;20403;-59
2023/10/05 14:44:19;;;;;;;21.40;7.00;;;;;;;;;;6257701;28;20099;-58
2023/10/05 14:47:22;;;;;;;22.03;6.43;;;;;;;;;;6258729;28;20535;-60
2023/10/05 14:50:22;;;;;;;25.50;7.10;;;;;;;;;;6259123;28;20451;-61
2023/10/05 14:53:24;;;;;;;25.25;7.13;;;;;;;;;;6254966;28;20069;-59
2023/10/05 14:56:25;;;;;;;27.08;6.82;;;;;;;;;;6255645;28;20139;-59
2023/10/05 14:59:26;;;;;;;24.58;7.35;;;;;;;;;;6254340;28;20480;-59
2023/10/05 15:02:27;;;;;;;27.92;7.15;;;;;;;;;;6253321;28;20049;-59
2023/10/05 15:05:29;;;;;;;29.50;7.05;;;;;;;;;;6254689;28;20045;-60
2023/10/05 15:08:32;;;;;;;27.00;7.00;;;;;;;;;;6253516;28;20044;-64
2023/10/05 15:11:33;;;;;;;26.92;7.35;;;;;;;;;;6253376;28;20367;-60
2023/10/05 15:14:33;;;;;;;27.70;8.05;;;;;;;;;;6252097;28;20496;-60
2023/10/05 15:17:34;;;;;;;28.75;8.63;;;;;;;;;;6255089;28;20413;-61
2023/10/05 15:20:37;;;;;;;28.20;7.50;;;;;;;;;;6256727;28;20424;-61
2023/10/05 15:23:38;;;;;;;27.33;7.13;;;;;;;;;;6254627;28;20052;-60
2023/10/05 15:26:40;;;;;;;29.10;6.70;;;;;;;;;;6253993;28;20851;-60
2023/10/05 15:29:40;;;;;;;28.45;7.10;;;;;;;;;;6254779;28;20060;-60
2023/10/05 15:32:42;;;;;;;33.28;8.93;;;;;;;;;;6253789;28;20052;-60
2023/10/05 15:35:43;;;;;;;27.40;7.43;;;;;;;;;;6252030;28;20462;-60
2023/10/05 15:38:43;;;;;;;24.45;7.28;;;;;;;;;;6252573;28;20167;-60
2023/10/05 15:41:44;;;;;;;28.13;7.90;;;;;;;;;;6255061;28;20049;-59
2023/10/05 15:44:46;;;;;;;27.77;7.70;;;;;;;;;;6249987;28;20056;-59
2023/10/05 15:47:53;;;;;;;32.15;7.50;;;;;;;;;;6253427;28;20648;-60
2023/10/05 15:50:55;;;;;;;25.75;7.47;;;;;;;;;;6255641;28;20048;-60
2023/10/05 15:54:01;;;;;;;28.02;8.32;;;;;;;;;;6250380;28;20114;-60
2023/10/05 15:57:03;;;;;;;26.27;7.60;;;;;;;;;;6254988;28;20060;-61
2023/10/05 16:00:15;;;;;;;26.08;8.02;;;;;;;;;;6255869;28;20053;-60
2023/10/05 16:03:17;;;;;;;20.83;6.82;;;;;;;;;;6250640;28;20689;-61
2023/10/05 16:06:20;;;;;;;26.40;7.22;;;;;;;;;;6254087;28;20253;-60
2023/10/05 16:09:20;;;;;;;26.65;7.22;;;;;;;;;;6251626;28;20547;-60
2023/10/05 16:12:21;;;;;;;31.58;9.13;;;;;;;;;;6253941;28;20049;-60
2023/10/05 16:15:23;;;;;;;30.42;8.20;;;;;;;;;;6248624;28;20060;-60
2023/10/05 16:18:24;;;;;;;25.50;8.07;;;;;;;;;;6267679;28;20045;-60
2023/10/05 16:21:28;;;;;;;27.40;7.70;;;;;;;;;;6251599;28;20064;-61
2023/10/05 16:24:32;;;;;;;36.38;8.07;;;;;;;;;;6243478;28;20488;-60
2023/10/05 16:27:33;;;;;;;30.60;7.43;;;;;;;;;;6248677;28;20468;-60
2023/10/05 16:30:35;;;;;;;25.33;8.40;;;;;;;;;;6250765;28;20561;-60
2023/10/05 16:33:36;;;;;;;26.90;7.85;;;;;;;;;;6248524;28;20512;-60
2023/10/05 16:36:39;;;;;;;21.65;7.75;;;;;;;;;;6251243;28;20053;-59
2023/10/05 16:39:40;;;;;;;28.10;7.57;;;;;;;;;;6249346;28;20376;-61
2023/10/05 16:42:42;;;;;;;32.22;8.38;;;;;;;;;;6252592;28;20094;-59
2023/10/05 16:45:43;;;;;;;27.52;8.43;;;;;;;;;;6252307;28;20083;-60
2023/10/05 16:48:44;;;;;;;34.93;9.00;;;;;;;;;;6250509;28;20067;-59
2023/10/05 16:51:44;;;;;;;29.63;9.57;;;;;;;;;;6252331;28;20049;-60
2023/10/05 16:54:45;;;;;;;28.17;9.20;;;;;;;;;;6248722;28;20176;-60
2023/10/05 16:57:49;;;;;;;34.20;9.60;;;;;;;;;;6248143;28;20056;-59
2023/10/05 17:00:49;;;;;;;34.85;9.80;;;;;;;;;;6250654;28;20527;-59
2023/10/05 17:03:50;;;;;;;31.77;10.88;;;;;;;;;;6249868;28;20057;-60
2023/10/05 17:06:50;;;;;;;30.73;9.82;;;;;;;;;;6252566;28;20172;-60
2023/10/05 17:09:51;;;;;;;29.75;9.00;;;;;;;;;;6251548;28;20399;-60
2023/10/05 17:12:52;;;;;;;39.63;11.75;;;;;;;;;;6256425;28;20788;-61
2023/10/05 17:15:53;;;;;;;35.75;10.27;;;;;;;;;;6253115;28;20049;-61
2023/10/05 17:18:54;;;;;;;34.27;10.20;;;;;;;;;;6256019;28;20415;-61
2023/10/05 17:21:55;;;;;;;32.20;9.15;;;;;;;;;;6254915;28;20282;-61
2023/10/05 17:24:56;;;;;;;30.17;10.27;;;;;;;;;;6252686;28;20040;-62
2023/10/05 17:27:56;;;;;;;32.20;9.67;;;;;;;;;;6255950;28;20057;-60
2023/10/05 17:30:59;;;;;;;28.50;9.50;;;;;;;;;;6255441;28;20436;-61
2023/10/05 17:33:59;;;;;;;;;;;;;;;;;;6251747;28;20459;-61
2023/10/05 17:37:00;;;;;;;33.38;9.07;;;;;;;;;;6255710;28;19991;-62
2023/10/05 17:40:01;;;;;;;25.98;9.35;;;;;;;;;;6255898;28;20513;-60
2023/10/05 17:43:01;;;;;;;35.47;10.50;;;;;;;;;;6253648;28;20877;-60
2023/10/05 17:46:02;;;;;;;39.85;10.93;;;;;;;;;;6254418;28;20049;-61
2023/10/05 17:49:03;;;;;;;32.73;11.03;;;;;;;;;;6255310;28;20051;-62
2023/10/05 17:52:06;;;;;;;34.03;11.07;;;;;;;;;;6255995;28;20396;-62
2023/10/05 17:55:07;;;;;;;35.28;11.02;;;;;;;;;;6251964;28;20144;-63
2023/10/05 17:58:08;;;;;;;40.85;11.90;;;;;;;;;;6260485;28;20045;-62
2023/10/05 18:01:17;;;;;;;38.35;14.45;;;;;;;;;;6260784;28;20053;-62
2023/10/05 18:04:18;;;;;;;38.70;11.57;;;;;;;;;;6254201;28;20599;-60
2023/10/05 18:07:18;;;;;;;36.13;15.00;;;;;;;;;;6258669;28;20123;-59
2023/10/05 18:10:20;;;;;;;48.78;16.38;;;;;;;;;;6259471;28;20053;-59
2023/10/05 18:13:21;;;;;;;46.15;16.27;;;;;;;;;;6256413;28;20544;-60
2023/10/05 18:16:22;;;;;;;49.53;17.93;;;;;;;;;;6257908;28;20049;-60